createdAt,value
2023-05-23T00:01:19.633Z,13.38
2023-05-23T00:06:23.671Z,15.48
2023-05-23T00:11:27.171Z,25.30
2023-05-23T00:16:28.557Z,15.20
2023-05-23T00:21:30.697Z,20.85
2023-05-23T00:26:32.461Z,15.93
2023-05-23T00:31:33.855Z,21.30
2023-05-23T00:36:37.554Z,18.30
2023-05-23T00:41:38.893Z,20.47
2023-05-23T00:46:40.901Z,19.57
2023-05-23T00:51:43.249Z,19.48
2023-05-23T00:56:44.759Z,20.15
2023-05-23T01:01:46.811Z,18.20
2023-05-23T01:06:49.310Z,20.25
2023-05-23T01:11:57.015Z,19.92
2023-05-23T01:16:59.969Z,19.90
2023-05-23T01:22:04.516Z,23.77
2023-05-23T01:27:09.496Z,19.23
2023-05-23T01:32:11.834Z,22.17
2023-05-23T01:37:18.645Z,21.65
2023-05-23T01:42:20.029Z,21.98
2023-05-23T01:47:22.326Z,23.17
2023-05-23T01:52:23.785Z,24.02
2023-05-23T01:57:26.195Z,22.60
2023-05-23T02:02:27.781Z,22.60
2023-05-23T02:07:29.172Z,20.83
2023-05-23T02:12:30.661Z,19.80
2023-05-23T02:17:32.035Z,20.50
2023-05-23T02:22:33.382Z,23.73
2023-05-23T02:27:34.695Z,23.10
2023-05-23T02:32:37.532Z,18.60
2023-05-23T02:37:38.922Z,18.77
2023-05-23T02:42:40.339Z,17.95
2023-05-23T02:47:41.681Z,22.02
2023-05-23T02:52:43.056Z,22.47
2023-05-23T02:57:44.383Z,32.80
2023-05-23T03:02:46.074Z,30.90
2023-05-23T03:07:47.915Z,23.30
2023-05-23T03:12:49.210Z,20.85
2023-05-23T03:17:50.693Z,25.40
2023-05-23T03:22:52.001Z,25.33
2023-05-23T03:27:53.311Z,28.52
2023-05-23T03:32:54.660Z,26.17
2023-05-23T03:37:55.994Z,30.13
2023-05-23T03:43:04.772Z,29.77
2023-05-23T03:48:06.232Z,38.92
2023-05-23T03:53:07.764Z,38.13
2023-05-23T03:58:09.035Z,38.10
2023-05-23T04:03:11.573Z,40.20
2023-05-23T04:08:13.499Z,42.53
2023-05-23T04:13:15.264Z,39.37
2023-05-23T04:18:17.335Z,38.75
2023-05-23T04:23:18.668Z,67.43
2023-05-23T04:28:19.991Z,35.87
2023-05-23T04:33:21.663Z,45.47
2023-05-23T04:38:25.080Z,37.20
2023-05-23T04:43:29.433Z,40.67
2023-05-23T04:48:31.493Z,38.80
2023-05-23T04:53:32.779Z,39.83
2023-05-23T04:58:34.303Z,42.33
2023-05-23T05:03:35.826Z,37.28
2023-05-23T05:08:37.217Z,33.17
2023-05-23T05:13:38.558Z,34.17
2023-05-23T05:18:40.336Z,32.43
2023-05-23T05:23:41.860Z,32.45
2023-05-23T05:28:43.188Z,34.45
2023-05-23T05:33:45.929Z,46.53
2023-05-23T05:38:47.661Z,54.67
2023-05-23T05:43:49.095Z,48.95
2023-05-23T05:48:50.388Z,34.03
2023-05-23T05:53:51.736Z,29.23
2023-05-23T05:58:53.076Z,31.88
2023-05-23T06:03:54.512Z,35.27
2023-05-23T06:08:56.056Z,34.72
2023-05-23T06:13:57.552Z,28.63
2023-05-23T06:18:59.208Z,30.97
2023-05-23T06:24:00.706Z,23.42
2023-05-23T06:29:02.030Z,27.13
2023-05-23T06:34:03.360Z,26.40
2023-05-23T06:39:04.705Z,21.88
2023-05-23T06:44:06.028Z,22.40
2023-05-23T06:54:14.892Z,19.30
2023-05-23T06:59:16.219Z,28.90
2023-05-23T07:04:17.525Z,24.98
2023-05-23T07:09:18.871Z,18.20
2023-05-23T07:14:21.270Z,20.08
2023-05-23T07:19:22.657Z,20.52
2023-05-23T07:24:25.321Z,25.90
2023-05-23T07:29:26.817Z,22.98
2023-05-23T07:34:28.266Z,20.70
2023-05-23T07:39:29.603Z,19.73
2023-05-23T07:44:30.941Z,19.27
2023-05-23T07:49:32.317Z,46.78
2023-05-23T07:54:33.736Z,24.70
2023-05-23T07:59:35.126Z,20.17
2023-05-23T08:04:36.497Z,20.00
2023-05-23T08:09:38.582Z,18.05
2023-05-23T08:14:50.629Z,15.43
2023-05-23T08:19:55.359Z,17.42
2023-05-23T08:24:56.699Z,17.75
2023-05-23T08:29:58.313Z,18.47
2023-05-23T08:34:59.651Z,16.40
2023-05-23T08:40:01.632Z,16.63
2023-05-23T08:45:03.337Z,19.63
2023-05-23T08:50:06.618Z,17.27
2023-05-23T08:55:08.496Z,38.42
2023-05-23T09:00:14.823Z,21.23
2023-05-23T09:05:16.963Z,22.60
2023-05-23T09:10:20.376Z,16.02
2023-05-23T09:15:23.862Z,12.70
2023-05-23T09:20:25.290Z,14.23
2023-05-23T09:25:26.725Z,16.83
2023-05-23T09:30:28.163Z,15.45
2023-05-23T09:35:29.607Z,21.25
2023-05-23T09:40:34.549Z,12.83
2023-05-23T09:45:36.187Z,13.05
2023-05-23T09:50:37.616Z,23.52
2023-05-23T09:55:40.324Z,12.40
2023-05-23T10:00:42.451Z,10.27
2023-05-23T10:05:51.890Z,10.73
2023-05-23T10:10:56.304Z,12.03
2023-05-23T10:16:10.069Z,9.87
2023-05-23T10:21:21.078Z,8.27
2023-05-23T10:26:22.720Z,12.50
2023-05-23T10:31:24.418Z,16.20
2023-05-23T10:36:28.760Z,10.68
2023-05-23T10:41:43.471Z,7.20
2023-05-23T10:47:04.011Z,12.43
2023-05-23T10:52:07.372Z,8.88
2023-05-23T10:57:10.184Z,9.27
2023-05-23T11:02:17.825Z,9.13
2023-05-23T11:07:29.117Z,16.73
2023-05-23T11:12:37.528Z,7.43
2023-05-23T11:17:49.797Z,18.15
2023-05-23T11:22:55.974Z,11.23
2023-05-23T11:27:57.428Z,13.30
2023-05-23T11:32:58.793Z,14.35
2023-05-23T11:38:00.309Z,7.67
2023-05-23T11:43:03.233Z,8.73
2023-05-23T11:48:05.767Z,6.75
2023-05-23T11:53:07.182Z,7.40
2023-05-23T11:58:09.257Z,8.00
2023-05-23T12:03:11.782Z,7.90
2023-05-23T12:08:14.556Z,8.30
2023-05-23T12:13:15.999Z,5.93
2023-05-23T12:18:19.074Z,6.10
2023-05-23T12:23:26.633Z,7.85
2023-05-23T12:28:34.783Z,7.40
2023-05-23T12:33:45.709Z,7.97
2023-05-23T12:38:47.065Z,13.32
2023-05-23T12:43:52.356Z,7.70
2023-05-23T12:48:53.972Z,7.37
2023-05-23T12:53:55.588Z,9.40
2023-05-23T12:58:57.020Z,7.10
2023-05-23T13:03:58.422Z,8.83
2023-05-23T13:08:59.758Z,12.60
2023-05-23T13:14:01.351Z,7.88
2023-05-23T13:19:02.721Z,10.00
2023-05-23T13:24:04.110Z,9.43
2023-05-23T13:29:05.715Z,6.63
2023-05-23T13:34:07.039Z,8.30
2023-05-23T13:39:08.370Z,7.87
2023-05-23T13:44:09.671Z,7.45
2023-05-23T13:49:11.143Z,6.40
2023-05-23T13:54:13.428Z,7.10
2023-05-23T13:59:19.036Z,9.13
2023-05-23T14:04:20.515Z,10.38
2023-05-23T14:09:23.420Z,9.23
2023-05-23T14:14:26.880Z,9.52
2023-05-23T14:19:28.237Z,9.93
2023-05-23T14:24:29.676Z,10.73
2023-05-23T14:29:31.764Z,7.37
2023-05-23T14:34:33.144Z,12.13
2023-05-23T14:39:34.667Z,15.13
2023-05-23T14:44:36.096Z,10.77
2023-05-23T14:49:37.585Z,11.90
2023-05-23T14:54:43.530Z,11.10
2023-05-23T14:59:45.196Z,11.93
2023-05-23T15:04:46.582Z,10.75
2023-05-23T15:09:48.321Z,17.27
2023-05-23T15:14:49.664Z,13.13
2023-05-23T15:19:50.999Z,11.57
2023-05-23T15:24:52.493Z,12.10
2023-05-23T15:29:53.892Z,11.30
2023-05-23T15:34:55.289Z,10.83
2023-05-23T15:39:56.666Z,10.70
2023-05-23T15:44:57.983Z,10.85
2023-05-23T15:49:59.302Z,14.57
2023-05-23T15:55:04.139Z,9.48
2023-05-23T16:00:06.075Z,9.00
2023-05-23T16:05:07.626Z,11.43
2023-05-23T16:10:09.227Z,13.10
2023-05-23T16:15:10.724Z,9.57
2023-05-23T16:20:12.219Z,11.95
2023-05-23T16:25:13.603Z,11.13
2023-05-23T16:30:15.564Z,9.45
2023-05-23T16:35:16.875Z,11.98
2023-05-23T16:40:19.659Z,19.00
2023-05-23T16:45:21.255Z,11.65
2023-05-23T16:50:22.614Z,11.98
2023-05-23T16:55:24.252Z,16.50
2023-05-23T17:00:26.187Z,11.97
2023-05-23T17:05:27.528Z,15.35
2023-05-23T17:10:28.920Z,12.93
2023-05-23T17:15:30.599Z,11.70
2023-05-23T17:20:32.092Z,14.43
2023-05-23T17:25:33.467Z,17.48
2023-05-23T17:30:34.872Z,18.43
2023-05-23T17:35:36.255Z,15.10
2023-05-23T17:40:37.645Z,15.20
2023-05-23T17:45:39.050Z,16.33
2023-05-23T17:50:40.665Z,14.60
2023-05-23T17:55:42.162Z,16.00
2023-05-23T18:00:43.818Z,14.30
2023-05-23T18:05:45.461Z,13.47
2023-05-23T18:10:47.618Z,15.13
2023-05-23T18:15:48.976Z,12.88
2023-05-23T18:20:50.775Z,14.03
2023-05-23T18:25:52.689Z,12.10
2023-05-23T18:30:54.050Z,14.73
2023-05-23T18:35:55.460Z,14.57
2023-05-23T18:40:56.759Z,13.40
2023-05-23T18:45:58.195Z,11.25
2023-05-23T18:50:59.504Z,13.40
2023-05-23T18:56:00.837Z,14.13
2023-05-23T19:01:03.891Z,13.70
2023-05-23T19:06:06.027Z,13.82
2023-05-23T19:11:07.676Z,20.40
2023-05-23T19:16:09.096Z,15.38
2023-05-23T19:21:10.996Z,14.55
2023-05-23T19:26:13.567Z,17.47
2023-05-23T19:31:14.923Z,17.23
2023-05-23T19:36:16.253Z,16.85
2023-05-23T19:41:20.118Z,15.75
2023-05-23T19:46:21.647Z,15.60
2023-05-23T19:51:23.232Z,15.55
2023-05-23T19:56:25.816Z,16.27
2023-05-23T20:01:27.646Z,14.97
2023-05-23T20:06:29.022Z,12.85
2023-05-23T20:11:30.947Z,11.25
2023-05-23T20:16:32.543Z,11.57
2023-05-23T20:21:33.984Z,11.87
2023-05-23T20:26:35.648Z,12.57
2023-05-23T20:31:37.066Z,11.93
2023-05-23T20:36:38.429Z,10.87
2023-05-23T20:41:42.175Z,9.90
2023-05-23T20:46:43.752Z,13.52
2023-05-23T20:51:45.162Z,12.13
2023-05-23T20:56:47.148Z,13.57
2023-05-23T21:01:49.071Z,12.25
2023-05-23T21:06:50.439Z,11.23
2023-05-23T21:11:51.770Z,10.15
2023-05-23T21:16:53.135Z,10.68
2023-05-23T21:21:56.079Z,10.20
2023-05-23T21:26:57.574Z,10.77
2023-05-23T21:31:59.047Z,11.48
2023-05-23T21:37:00.451Z,11.70
2023-05-23T21:42:02.411Z,8.60
2023-05-23T21:47:03.822Z,9.40
2023-05-23T21:52:05.210Z,9.02
2023-05-23T21:57:06.565Z,9.23
2023-05-23T22:02:07.930Z,7.35
2023-05-23T22:07:09.344Z,8.20
2023-05-23T22:12:10.741Z,7.17
2023-05-23T22:17:14.196Z,9.00
2023-05-23T22:22:15.560Z,9.25
2023-05-23T22:27:16.973Z,7.55
2023-05-23T22:32:18.368Z,8.27
2023-05-23T22:37:19.734Z,6.45
2023-05-23T22:42:21.045Z,7.10
2023-05-23T22:47:22.522Z,6.77
2023-05-23T22:52:23.947Z,8.20
2023-05-23T22:57:25.280Z,9.93
2023-05-23T23:02:26.726Z,8.20
2023-05-23T23:07:28.120Z,9.05
2023-05-23T23:12:29.472Z,7.15
2023-05-23T23:17:30.851Z,9.13
2023-05-23T23:22:32.238Z,9.23
2023-05-23T23:27:33.585Z,7.07
2023-05-23T23:32:35.193Z,8.52
2023-05-23T23:37:36.517Z,9.93
2023-05-23T23:42:37.812Z,6.50
2023-05-23T23:47:39.194Z,8.77
2023-05-23T23:52:40.734Z,9.37
2023-05-23T23:57:42.125Z,9.40
